Time;durP1;ratioP1;P1;durP2;ratioP2;P2;SDS_P1;SDS_P2;PMS_P1;PMS_P2;Temp;Humidity;BMP_temperature;BMP_pressure;BME280_temperature;BME280_humidity;BME280_pressure;Samples;Min_cycle;Max_cycle;Signal;HPM_P1;HPM_P2
2021/04/18 00:02:08;;;;;;;10.48;2.25;;;10.50;65.40;;;;;;5074911;28;20057;-59
2021/04/18 00:04:37;;;;;;;12.50;2.88;;;10.40;65.40;;;;;;5074901;28;20112;-59
2021/04/18 00:07:03;;;;;;;5.72;2.50;;;10.40;65.50;;;;;;5074556;28;20044;-59
2021/04/18 00:09:28;;;;;;;4.25;2.17;;;10.40;65.60;;;;;;5074880;28;20361;-59
2021/04/18 00:11:54;;;;;;;6.43;1.90;;;10.40;65.60;;;;;;5074302;28;20075;-59
2021/04/18 00:14:20;;;;;;;6.10;1.85;;;10.40;65.70;;;;;;5074502;28;20446;-59
2021/04/18 00:16:46;;;;;;;5.30;2.00;;;10.30;65.80;;;;;;5074647;28;20029;-59
2021/04/18 00:19:11;;;;;;;4.50;1.88;;;10.30;65.80;;;;;;5074679;28;20042;-59
2021/04/18 00:21:42;;;;;;;4.97;2.03;;;10.30;65.80;;;;;;5073766;28;20479;-59
2021/04/18 00:24:11;;;;;;;13.90;1.90;;;10.20;65.70;;;;;;5074972;28;20028;-59
2021/04/18 00:26:37;;;;;;;3.25;1.80;;;10.20;65.60;;;;;;5074251;28;20484;-59
2021/04/18 00:29:03;;;;;;;15.10;2.17;;;10.20;65.40;;;;;;5074014;28;20089;-59
2021/04/18 00:31:31;;;;;;;6.05;2.95;;;10.20;65.30;;;;;;5074378;28;20028;-59
2021/04/18 00:33:58;;;;;;;7.97;2.15;;;10.10;65.30;;;;;;5074464;28;20017;-59
2021/04/18 00:36:24;;;;;;;12.90;2.55;;;10.10;65.40;;;;;;5074107;28;20391;-59
2021/04/18 00:38:50;;;;;;;6.78;2.20;;;10.10;65.40;;;;;;5074430;28;20039;-59
2021/04/18 00:41:15;;;;;;;5.70;2.38;;;10.10;65.50;;;;;;5074402;28;20032;-59
2021/04/18 00:43:42;;;;;;;4.60;2.47;;;10.10;65.60;;;;;;5073589;28;20060;-59
2021/04/18 00:46:12;;;;;;;12.00;2.60;;;10.00;65.80;;;;;;5074371;28;20056;-59
2021/04/18 00:48:42;;;;;;;6.47;1.95;;;10.00;65.80;;;;;;5073306;28;20520;-59
2021/04/18 00:51:17;;;;;;;39.28;3.33;;;10.00;65.80;;;;;;5074358;28;20445;-59
2021/04/18 00:53:43;;;;;;;99.53;3.85;;;10.00;65.60;;;;;;5073935;28;20082;-59
2021/04/18 00:56:10;;;;;;;25.02;2.70;;;10.00;65.60;;;;;;5073362;28;20407;-59
2021/04/18 00:58:37;;;;;;;18.77;2.70;;;9.90;65.60;;;;;;5074109;28;20078;-59
2021/04/18 01:01:04;;;;;;;58.00;3.33;;;9.90;65.60;;;;;;5073716;28;20403;-59
2021/04/18 01:03:32;;;;;;;14.45;2.50;;;9.90;65.80;;;;;;5085936;28;20036;-59
2021/04/18 01:05:58;;;;;;;18.88;2.78;;;9.90;65.90;;;;;;5092686;28;20032;-59
2021/04/18 01:08:24;;;;;;;6.97;2.60;;;9.80;65.80;;;;;;5092951;28;20031;-59
2021/04/18 01:10:50;;;;;;;4.07;2.22;;;9.80;65.80;;;;;;5093419;28;20438;-59
2021/04/18 01:13:16;;;;;;;6.45;2.63;;;9.80;65.80;;;;;;5089216;28;20086;-59
2021/04/18 01:15:42;;;;;;;7.03;2.58;;;9.70;65.80;;;;;;5084324;28;20028;-59
2021/04/18 01:18:09;;;;;;;8.55;2.80;;;9.70;65.90;;;;;;5091952;28;20028;-59
2021/04/18 01:20:38;;;;;;;6.70;2.63;;;9.70;65.90;;;;;;5093731;28;20048;-59
2021/04/18 01:23:37;;;;;;;5.13;2.35;;;9.70;66.00;;;;;;5086612;28;20119;-59
2021/04/18 01:26:14;;;;;;;7.45;2.50;;;9.70;66.00;;;;;;5087260;28;20067;-59
2021/04/18 01:28:41;;;;;;;9.02;2.50;;;9.60;66.10;;;;;;5092385;28;20062;-59
2021/04/18 01:31:09;;;;;;;6.88;2.50;;;9.70;66.30;;;;;;5093169;28;20462;-59
2021/04/18 01:33:36;;;;;;;20.27;3.05;;;9.60;66.30;;;;;;5093667;28;20040;-59
2021/04/18 01:36:06;;;;;;;4.45;2.80;;;9.60;66.30;;;;;;5093679;28;20509;-59
2021/04/18 01:38:32;;;;;;;7.38;2.97;;;9.50;66.30;;;;;;5092654;28;20024;-59
2021/04/18 01:41:01;;;;;;;7.53;2.90;;;9.60;66.30;;;;;;5093694;28;20035;-58
2021/04/18 01:43:31;;;;;;;4.85;2.20;;;9.60;66.40;;;;;;5079051;28;20040;-59
2021/04/18 01:45:57;;;;;;;7.78;3.00;;;9.50;66.50;;;;;;5092577;28;20425;-59
2021/04/18 01:48:24;;;;;;;6.05;2.35;;;9.50;66.40;;;;;;5092081;28;20024;-58
2021/04/18 01:50:52;;;;;;;3.78;2.58;;;9.50;66.40;;;;;;5091953;28;20024;-59
2021/04/18 01:53:19;;;;;;;11.60;3.55;;;9.40;66.20;;;;;;5092695;28;20391;-59
2021/04/18 01:55:48;;;;;;;8.80;3.95;;;9.40;66.60;;;;;;5092825;28;20113;-59
2021/04/18 01:58:13;;;;;;;20.65;3.92;;;9.40;67.00;;;;;;5093381;28;20016;-59
2021/04/18 02:00:49;;;;;;;55.05;5.70;;;9.40;67.40;;;;;;5088739;28;20075;-59
2021/04/18 02:03:15;;;;;;;20.42;5.20;;;9.40;67.80;;;;;;5091519;28;20063;-59
2021/04/18 02:05:43;;;;;;;15.80;4.30;;;9.40;68.20;;;;;;5091885;28;20051;-59
2021/04/18 02:08:21;;;;;;;11.80;4.28;;;9.30;68.30;;;;;;5091693;28;20023;-59
2021/04/18 02:10:49;;;;;;;12.68;4.88;;;9.20;68.50;;;;;;5091624;28;20035;-59
2021/04/18 02:13:16;;;;;;;23.13;5.63;;;9.30;68.80;;;;;;5092272;28;20486;-59
2021/04/18 02:15:51;;;;;;;59.88;6.60;;;9.20;69.00;;;;;;5091546;28;20032;-59
2021/04/18 02:18:18;;;;;;;181.85;6.75;;;9.20;69.20;;;;;;5093181;28;20024;-59
2021/04/18 02:20:45;;;;;;;100.30;5.55;;;9.10;69.30;;;;;;5090797;28;20032;-59
2021/04/18 02:23:11;;;;;;;115.68;6.10;;;9.10;69.40;;;;;;5092825;28;20543;-59
2021/04/18 02:25:37;;;;;;;134.93;5.28;;;9.10;69.60;;;;;;5092848;28;20430;-59
2021/04/18 02:28:05;;;;;;;61.22;4.10;;;9.10;69.70;;;;;;5091996;28;20513;-59
2021/04/18 02:30:35;;;;;;;66.68;4.18;;;9.10;69.80;;;;;;5091552;28;20078;-59
2021/04/18 02:33:01;;;;;;;86.72;5.82;;;9.10;69.90;;;;;;5091044;28;20537;-59
2021/04/18 02:35:27;;;;;;;97.15;4.80;;;9.00;70.00;;;;;;5090742;28;20024;-59
2021/04/18 02:37:53;;;;;;;22.65;4.38;;;9.00;70.20;;;;;;5091249;28;20436;-59
2021/04/18 02:40:20;;;;;;;64.82;4.60;;;9.00;70.40;;;;;;5092683;28;20046;-59
2021/04/18 02:42:47;;;;;;;47.75;4.55;;;9.00;70.60;;;;;;5091992;28;20036;-59
2021/04/18 02:45:17;;;;;;;18.08;3.85;;;9.00;70.80;;;;;;5091130;28;20529;-59
2021/04/18 02:47:46;;;;;;;34.28;4.55;;;9.00;70.90;;;;;;5091676;28;20509;-59
2021/04/18 02:50:22;;;;;;;27.67;4.45;;;9.00;71.00;;;;;;5091826;28;20069;-59
2021/04/18 02:52:50;;;;;;;46.03;4.82;;;8.90;71.10;;;;;;5092668;28;20109;-59
2021/04/18 02:55:16;;;;;;;32.95;4.35;;;8.90;71.10;;;;;;5091634;28;20433;-59
2021/04/18 02:58:00;;;;;;;17.10;4.40;;;8.90;71.20;;;;;;5092500;28;20031;-59
2021/04/18 03:00:27;;;;;;;12.55;4.47;;;8.90;71.30;;;;;;5091041;28;20055;-59
2021/04/18 03:02:53;;;;;;;37.60;4.60;;;8.90;71.40;;;;;;5090144;28;20079;-59
2021/04/18 03:05:21;;;;;;;100.65;6.13;;;8.90;71.40;;;;;;5096062;28;20484;-59
2021/04/18 03:07:55;;;;;;;104.95;6.47;;;8.90;71.70;;;;;;5095048;28;20031;-59
2021/04/18 03:10:22;;;;;;;27.48;5.22;;;8.90;72.00;;;;;;5094239;28;20567;-59
2021/04/18 03:12:48;;;;;;;159.85;6.30;;;8.90;72.20;;;;;;5095155;28;20115;-59
2021/04/18 03:15:15;;;;;;;186.63;7.28;;;8.90;72.20;;;;;;5096482;28;20024;-59
2021/04/18 03:17:48;;;;;;;42.60;4.47;;;8.90;72.50;;;;;;5094226;28;20497;-59
2021/04/18 03:20:16;;;;;;;13.90;3.60;;;8.80;72.40;;;;;;5094994;28;20032;-59
2021/04/18 03:22:44;;;;;;;90.18;5.53;;;8.80;72.20;;;;;;5096000;28;20028;-59
2021/04/18 03:25:11;;;;;;;55.63;3.95;;;8.80;71.90;;;;;;5094182;28;20030;-59
2021/04/18 03:27:37;;;;;;;165.13;8.05;;;8.80;71.80;;;;;;5094601;28;20027;-59
2021/04/18 03:30:07;;;;;;;11.13;3.38;;;8.80;71.50;;;;;;5085229;28;20024;-59
2021/04/18 03:32:43;;;;;;;6.15;3.20;;;8.80;71.40;;;;;;5091340;28;20886;-59
2021/04/18 03:35:09;;;;;;;4.03;2.70;;;8.80;71.20;;;;;;5095936;28;20494;-59
2021/04/18 03:37:35;;;;;;;6.72;4.05;;;8.80;70.90;;;;;;5093841;28;20032;-59
2021/04/18 03:40:02;;;;;;;5.13;3.10;;;8.80;70.80;;;;;;5095882;28;20150;-59
2021/04/18 03:42:28;;;;;;;40.47;4.80;;;8.80;70.70;;;;;;5096023;28;20432;-59
2021/04/18 03:44:54;;;;;;;73.10;4.68;;;8.80;70.80;;;;;;5095069;28;20111;-59
2021/04/18 03:47:19;;;;;;;117.22;5.38;;;8.70;71.00;;;;;;5094014;28;20040;-59
2021/04/18 03:49:59;;;;;;;48.60;4.43;;;8.80;71.40;;;;;;5094266;28;20032;-59
2021/04/18 03:52:38;;;;;;;13.93;3.78;;;8.80;71.70;;;;;;5093825;28;20035;-59
2021/04/18 03:55:05;;;;;;;14.20;4.28;;;8.70;71.80;;;;;;5094112;28;20114;-59
2021/04/18 03:57:32;;;;;;;36.33;5.38;;;8.70;71.90;;;;;;5094348;28;20016;-59
2021/04/18 04:00:05;;;;;;;59.88;4.72;;;8.70;71.90;;;;;;5093304;28;20043;-59
2021/04/18 04:02:42;;;;;;;87.15;4.35;;;8.70;72.10;;;;;;5087232;28;20067;-59
2021/04/18 04:05:10;;;;;;;93.80;4.95;;;8.60;72.10;;;;;;5042734;28;20557;-59
2021/04/18 04:07:36;;;;;;;126.55;4.45;;;8.60;72.40;;;;;;5074432;28;20032;-59
2021/04/18 04:10:05;;;;;;;192.13;6.57;;;8.60;72.60;;;;;;5075018;28;20024;-59
2021/04/18 04:12:33;;;;;;;166.98;9.05;;;8.60;72.70;;;;;;5072799;28;20066;-59
2021/04/18 04:14:59;;;;;;;119.65;6.95;;;8.60;73.40;;;;;;5056656;28;20033;-59
2021/04/18 04:17:31;;;;;;;140.77;7.35;;;8.50;72.80;;;;;;5074933;28;20039;-59
2021/04/18 04:20:07;;;;;;;131.05;5.00;;;8.50;72.80;;;;;;5074282;28;20086;-59
2021/04/18 04:22:52;;;;;;;120.47;4.88;;;8.50;72.90;;;;;;5074613;28;20055;-59
2021/04/18 04:25:21;;;;;;;80.53;4.40;;;8.50;72.90;;;;;;5074764;28;20064;-59
2021/04/18 04:27:47;;;;;;;98.13;4.43;;;8.50;73.00;;;;;;5073847;28;20028;-59
2021/04/18 04:30:13;;;;;;;56.40;3.38;;;8.50;72.90;;;;;;5074662;28;20078;-59
2021/04/18 04:32:39;;;;;;;16.75;2.92;;;8.50;72.80;;;;;;5074444;28;20067;-59
2021/04/18 04:35:05;;;;;;;11.65;3.03;;;8.50;72.80;;;;;;5073934;28;20056;-59
2021/04/18 04:37:31;;;;;;;12.82;3.03;;;8.50;72.80;;;;;;5074336;28;20029;-59
2021/04/18 04:39:57;;;;;;;11.57;3.10;;;8.50;72.60;;;;;;5074211;28;20029;-59
2021/04/18 04:42:22;;;;;;;7.60;2.63;;;8.50;72.60;;;;;;5073959;28;20376;-59
2021/04/18 04:44:48;;;;;;;121.28;4.65;;;8.50;72.30;;;;;;5074188;28;20094;-58
2021/04/18 04:47:14;;;;;;;8.63;2.55;;;8.50;72.20;;;;;;5074280;28;20029;-59
2021/04/18 04:49:39;;;;;;;4.32;2.58;;;8.50;72.00;;;;;;5071222;28;20039;-59
2021/04/18 04:52:09;;;;;;;3.55;2.50;;;8.40;71.90;;;;;;5062447;28;20077;-59
2021/04/18 04:54:34;;;;;;;3.53;2.58;;;8.50;71.90;;;;;;5074299;28;20036;-59
2021/04/18 04:57:00;;;;;;;8.20;3.50;;;8.50;71.90;;;;;;5073512;28;20025;-59
2021/04/18 04:59:26;;;;;;;5.28;3.42;;;8.40;71.90;;;;;;5074094;28;20392;-59
2021/04/18 05:01:51;;;;;;;6.70;3.60;;;8.40;71.90;;;;;;5072899;28;20032;-59
2021/04/18 05:04:17;;;;;;;25.27;3.80;;;8.40;72.00;;;;;;5073365;28;20040;-59
2021/04/18 05:06:43;;;;;;;62.40;5.50;;;8.40;72.20;;;;;;5073680;28;20043;-59
2021/04/18 05:09:11;;;;;;;14.18;4.60;;;8.40;72.40;;;;;;5073273;28;20157;-59
2021/04/18 05:11:37;;;;;;;79.20;6.10;;;8.40;72.80;;;;;;5073177;28;20471;-59
2021/04/18 05:14:03;;;;;;;14.52;6.00;;;8.40;73.00;;;;;;5073086;28;20074;-59
2021/04/18 05:16:30;;;;;;;12.05;6.63;;;8.40;73.30;;;;;;5072629;28;20082;-59
2021/04/18 05:18:55;;;;;;;14.07;6.68;;;8.40;73.80;;;;;;5072931;28;20115;-59
2021/04/18 05:21:24;;;;;;;17.05;7.57;;;8.40;74.10;;;;;;5073072;28;20103;-59
2021/04/18 05:23:50;;;;;;;14.98;6.40;;;8.40;74.60;;;;;;5072350;28;20805;-59
2021/04/18 05:26:16;;;;;;;17.13;7.22;;;8.40;74.90;;;;;;5053410;28;20021;-59
2021/04/18 05:28:42;;;;;;;18.17;7.80;;;8.40;75.20;;;;;;5056020;28;20024;-59
2021/04/18 05:31:07;;;;;;;16.60;8.75;;;8.40;75.50;;;;;;5056833;28;20036;-59
2021/04/18 05:33:33;;;;;;;17.67;8.02;;;8.40;75.80;;;;;;5055118;28;20108;-58
2021/04/18 05:35:59;;;;;;;23.20;9.10;;;8.50;76.20;;;;;;5055590;28;20021;-59
2021/04/18 05:38:25;;;;;;;20.33;9.35;;;8.50;76.60;;;;;;5053486;28;20043;-59
2021/04/18 05:40:50;;;;;;;19.77;8.65;;;8.50;77.00;;;;;;5053757;28;20044;-59
2021/04/18 05:43:16;;;;;;;27.05;12.65;;;8.50;77.30;;;;;;5072513;28;20083;-59
2021/04/18 05:45:42;;;;;;;24.98;11.25;;;8.60;77.70;;;;;;5071115;28;20041;-58
2021/04/18 05:48:08;;;;;;;16.15;8.95;;;8.60;78.00;;;;;;5071776;28;20055;-59
2021/04/18 05:50:34;;;;;;;20.02;9.30;;;8.60;78.20;;;;;;5072482;28;20044;-59
2021/04/18 05:53:00;;;;;;;18.60;9.65;;;8.60;78.40;;;;;;5072000;28;20035;-59
2021/04/18 05:55:26;;;;;;;21.60;9.52;;;8.70;78.60;;;;;;5072677;28;20028;-59
2021/04/18 05:57:52;;;;;;;17.83;9.65;;;8.70;78.60;;;;;;5072834;28;20484;-59
2021/04/18 06:00:18;;;;;;;16.75;8.95;;;8.70;78.70;;;;;;5071526;28;20034;-59
2021/04/18 06:02:44;;;;;;;20.70;9.77;;;8.70;78.90;;;;;;5074282;28;20086;-59
2021/04/18 06:05:10;;;;;;;25.85;10.70;;;8.70;79.00;;;;;;5071437;28;20476;-59
2021/04/18 06:07:36;;;;;;;25.95;9.82;;;8.70;79.30;;;;;;5066489;28;20104;-59
2021/04/18 06:10:03;;;;;;;25.65;10.15;;;8.70;79.50;;;;;;5069715;28;20475;-59
2021/04/18 06:12:29;;;;;;;24.98;9.85;;;8.70;79.70;;;;;;5071679;28;20024;-59
2021/04/18 06:14:54;;;;;;;21.95;8.65;;;8.80;79.90;;;;;;5072263;28;20525;-59
2021/04/18 06:17:20;;;;;;;23.25;10.00;;;8.80;80.40;;;;;;5071985;28;20428;-59
2021/04/18 06:19:46;;;;;;;27.25;10.30;;;8.80;80.50;;;;;;5070496;28;20069;-59
2021/04/18 06:22:12;;;;;;;23.48;10.05;;;8.80;80.80;;;;;;5072546;28;20039;-59
2021/04/18 06:24:37;;;;;;;27.85;9.98;;;8.80;80.80;;;;;;5072789;28;20120;-59
2021/04/18 06:27:03;;;;;;;24.38;9.95;;;8.80;81.10;;;;;;5071751;28;20032;-60
2021/04/18 06:29:29;;;;;;;24.58;11.60;;;8.80;81.00;;;;;;5072510;28;20029;-59
2021/04/18 06:31:54;;;;;;;22.85;9.52;;;8.90;81.30;;;;;;5072048;28;20071;-59
2021/04/18 06:34:23;;;;;;;23.67;11.15;;;8.90;81.40;;;;;;5070949;28;20032;-60
2021/04/18 06:36:52;;;;;;;23.35;11.05;;;9.00;81.40;;;;;;5071900;28;20155;-59
2021/04/18 06:39:18;;;;;;;23.05;8.63;;;9.00;82.00;;;;;;5071924;28;20093;-58
2021/04/18 06:41:53;;;;;;;32.25;10.90;;;9.00;81.70;;;;;;5068561;28;20021;-58
2021/04/18 06:44:20;;;;;;;19.73;8.55;;;9.10;82.00;;;;;;5071581;28;20036;-59
2021/04/18 06:46:50;;;;;;;18.80;9.93;;;9.10;82.00;;;;;;5066852;28;20468;-60
2021/04/18 06:49:17;;;;;;;20.65;10.77;;;9.10;82.40;;;;;;5071551;28;20471;-59
2021/04/18 06:51:47;;;;;;;21.35;10.10;;;9.10;82.30;;;;;;5071558;28;20032;-61
2021/04/18 06:54:17;;;;;;;23.85;11.60;;;9.10;82.50;;;;;;5071271;28;20064;-59
2021/04/18 06:56:43;;;;;;;20.60;9.68;;;9.20;83.00;;;;;;5071818;28;20029;-60
2021/04/18 06:59:08;;;;;;;23.35;10.38;;;9.10;83.30;;;;;;5070150;28;20086;-60
2021/04/18 07:01:35;;;;;;;25.98;10.48;;;9.20;83.60;;;;;;5070958;28;20028;-61
2021/04/18 07:04:11;;;;;;;22.60;10.32;;;9.20;84.00;;;;;;5064900;28;20412;-60
2021/04/18 07:06:50;;;;;;;23.67;10.00;;;9.30;84.60;;;;;;5068827;28;20411;-60
2021/04/18 07:09:19;;;;;;;22.92;10.30;;;9.30;84.90;;;;;;5070739;28;20021;-59
2021/04/18 07:11:46;;;;;;;20.60;8.73;;;9.40;84.90;;;;;;5071546;28;20506;-59
2021/04/18 07:14:23;;;;;;;20.15;8.82;;;9.40;85.00;;;;;;5071549;28;20028;-60
2021/04/18 07:16:51;;;;;;;20.67;7.80;;;9.50;85.00;;;;;;5069925;28;20037;-60
2021/04/18 07:19:24;;;;;;;19.13;8.95;;;9.50;84.70;;;;;;5071366;28;20529;-60
2021/04/18 07:21:55;;;;;;;23.92;8.57;;;9.60;85.10;;;;;;5071581;28;20827;-60
2021/04/18 07:24:23;;;;;;;20.08;8.40;;;9.60;85.20;;;;;;5069532;28;20036;-60
2021/04/18 07:26:57;;;;;;;14.50;7.30;;;9.70;85.40;;;;;;5067634;28;20037;-61
2021/04/18 07:29:24;;;;;;;20.45;7.75;;;9.70;85.30;;;;;;5071120;28;20024;-60
2021/04/18 07:31:58;;;;;;;23.65;8.63;;;9.80;84.80;;;;;;5061591;28;20032;-60
2021/04/18 07:34:24;;;;;;;18.67;7.15;;;9.80;85.10;;;;;;5071057;28;20032;-60
2021/04/18 07:37:05;;;;;;;17.17;7.13;;;9.90;84.70;;;;;;5070292;28;20046;-60
2021/04/18 07:39:47;;;;;;;22.33;8.07;;;9.90;84.20;;;;;;5070935;28;20044;-60
2021/04/18 07:42:35;;;;;;;17.92;6.85;;;9.90;84.10;;;;;;5070711;28;20115;-61
2021/04/18 07:45:11;;;;;;;16.30;8.25;;;9.90;84.50;;;;;;5050265;28;20501;-60
2021/04/18 07:47:40;;;;;;;17.25;8.95;;;9.90;84.70;;;;;;5060786;28;20550;-60
2021/04/18 07:50:10;;;;;;;19.77;9.45;;;10.00;85.30;;;;;;5071845;28;20601;-60
2021/04/18 07:52:41;;;;;;;19.42;8.68;;;10.10;85.70;;;;;;5073837;28;20027;-60
2021/04/18 07:55:07;;;;;;;19.67;8.00;;;10.10;85.60;;;;;;5073764;28;20439;-60
2021/04/18 07:57:33;;;;;;;17.88;8.32;;;10.10;85.10;;;;;;5073673;28;20024;-60
2021/04/18 07:59:59;;;;;;;12.27;6.80;;;10.10;85.60;;;;;;5067888;28;20533;-60
2021/04/18 08:02:26;;;;;;;16.40;8.63;;;10.20;85.80;;;;;;5075743;28;20090;-62
2021/04/18 08:04:56;;;;;;;16.25;7.97;;;10.30;86.00;;;;;;5073780;28;20036;-61
2021/04/18 08:10:23;;;;;;;13.02;5.82;;;10.40;85.50;;;;;;5014501;28;20065;-63
2021/04/18 08:13:16;;;;;;;16.30;6.00;;;10.40;85.60;;;;;;5015053;28;20038;-68
2021/04/18 08:15:57;;;;;;;18.60;6.82;;;10.50;84.90;;;;;;5003366;28;20028;-62
2021/04/18 08:18:43;;;;;;;15.02;5.95;;;10.50;84.00;;;;;;5010613;28;20030;-62
2021/04/18 08:21:41;;;;;;;14.18;6.47;;;10.50;83.50;;;;;;5013423;28;20120;-62
2021/04/18 08:24:19;;;;;;;18.75;6.20;;;10.60;83.90;;;;;;4995939;28;20116;-63
2021/04/18 08:27:00;;;;;;;14.77;5.25;;;10.60;83.60;;;;;;5010482;28;20030;-62
2021/04/18 08:29:26;;;;;;;13.63;5.03;;;10.70;82.90;;;;;;4994855;28;20117;-62
2021/04/18 08:31:54;;;;;;;10.77;5.25;;;10.70;82.10;;;;;;4996446;28;20030;-62
2021/04/18 08:34:30;;;;;;;17.33;5.68;;;10.70;81.70;;;;;;4995131;28;20022;-62
2021/04/18 08:36:58;;;;;;;9.50;5.63;;;10.70;82.00;;;;;;4997207;28;20382;-62
2021/04/18 08:39:25;;;;;;;13.43;5.85;;;10.80;81.70;;;;;;4995146;28;20041;-62
2021/04/18 08:41:53;;;;;;;9.25;4.45;;;10.80;81.80;;;;;;4992667;28;20061;-62
2021/04/18 08:44:25;;;;;;;10.73;4.68;;;10.80;81.30;;;;;;4994486;28;20030;-63
2021/04/18 08:47:03;;;;;;;6.88;3.97;;;10.90;80.40;;;;;;4995491;28;20049;-67
2021/04/18 08:49:47;;;;;;;9.40;4.50;;;11.00;80.20;;;;;;4996574;28;20018;-62
2021/04/18 08:52:25;;;;;;;11.68;3.80;;;11.00;79.80;;;;;;4994775;28;20836;-63
2021/04/18 08:54:52;;;;;;;8.48;3.90;;;11.00;78.60;;;;;;4993147;28;20842;-72
2021/04/18 08:57:26;;;;;;;7.30;3.05;;;11.10;77.80;;;;;;5003572;28;20503;-63
2021/04/18 08:59:56;;;;;;;9.35;3.30;;;11.10;76.40;;;;;;4996956;28;20038;-62
2021/04/18 09:02:23;;;;;;;8.07;3.05;;;11.20;75.90;;;;;;4993084;28;20046;-62
2021/04/18 09:04:56;;;;;;;4.82;3.08;;;11.20;76.00;;;;;;4997945;28;20054;-63
2021/04/18 09:07:28;;;;;;;9.52;2.83;;;11.40;75.30;;;;;;4994122;28;20054;-64
2021/04/18 09:09:57;;;;;;;12.55;3.10;;;11.40;74.60;;;;;;4993562;28;20516;-63
2021/04/18 09:12:22;;;;;;;7.18;3.03;;;11.50;73.50;;;;;;4997526;28;20027;-64
2021/04/18 09:14:49;;;;;;;12.77;3.58;;;11.50;72.90;;;;;;4992102;28;20033;-64
2021/04/18 09:17:16;;;;;;;9.52;5.25;;;11.60;72.40;;;;;;4991873;28;20050;-64
2021/04/18 09:19:49;;;;;;;11.40;4.13;;;11.60;72.60;;;;;;4995723;28;20034;-64
2021/04/18 09:22:17;;;;;;;11.18;3.83;;;11.70;72.10;;;;;;5006185;28;20066;-64
2021/04/18 09:24:51;;;;;;;11.82;4.07;;;11.70;72.60;;;;;;4992428;28;20428;-63
2021/04/18 09:27:26;;;;;;;10.32;4.65;;;11.90;72.90;;;;;;4998219;28;20030;-62
2021/04/18 09:29:58;;;;;;;11.85;4.20;;;11.90;72.80;;;;;;4995461;28;20026;-63
2021/04/18 09:32:29;;;;;;;9.68;3.97;;;12.00;72.60;;;;;;4995346;28;20026;-63
2021/04/18 09:34:55;;;;;;;9.57;4.82;;;12.00;72.60;;;;;;4993216;28;20030;-63
2021/04/18 09:37:26;;;;;;;14.85;5.40;;;12.10;73.00;;;;;;4994831;28;20056;-63
2021/04/18 09:39:55;;;;;;;12.45;4.13;;;12.10;72.70;;;;;;4992828;28;20034;-64
2021/04/18 09:42:23;;;;;;;14.13;5.40;;;12.10;72.80;;;;;;5001612;28;20057;-63
2021/04/18 09:44:51;;;;;;;10.13;5.05;;;12.20;72.90;;;;;;4991847;28;20037;-63
2021/04/18 09:47:20;;;;;;;9.50;4.20;;;12.20;73.20;;;;;;5002512;28;20025;-63
2021/04/18 09:49:50;;;;;;;11.55;4.22;;;12.30;73.70;;;;;;5008317;28;20053;-62
2021/04/18 09:52:32;;;;;;;8.50;4.22;;;12.40;73.60;;;;;;5000895;28;20123;-63
2021/04/18 09:55:16;;;;;;;10.20;4.72;;;12.40;73.40;;;;;;4995185;28;20405;-63
2021/04/18 09:57:44;;;;;;;;;;;12.40;72.90;;;;;;4993460;28;20023;-64
2021/04/18 10:00:17;;;;;;;12.90;4.70;;;12.50;73.40;;;;;;4991280;28;19925;-63
2021/04/18 10:02:56;;;;;;;8.40;4.53;;;12.50;73.40;;;;;;4994368;28;20378;-64
2021/04/18 10:05:22;;;;;;;10.57;4.28;;;12.50;73.60;;;;;;5004038;28;20546;-63
2021/04/18 10:07:48;;;;;;;10.40;5.05;;;12.50;74.00;;;;;;4996487;28;20083;-63
2021/04/18 10:10:31;;;;;;;10.45;4.88;;;12.60;74.40;;;;;;5006926;28;20054;-62
2021/04/18 10:13:00;;;;;;;10.90;5.47;;;12.60;74.70;;;;;;4994109;28;20041;-63
2021/04/18 10:15:26;;;;;;;9.77;5.38;;;12.60;75.00;;;;;;5003554;28;20345;-65
2021/04/18 10:17:52;;;;;;;12.77;5.18;;;12.70;75.30;;;;;;5008762;28;20030;-64
2021/04/18 10:20:27;;;;;;;10.02;5.00;;;12.70;75.40;;;;;;5008688;28;20041;-65
2021/04/18 10:23:08;;;;;;;27.73;5.85;;;12.80;75.40;;;;;;5010663;28;20021;-65
2021/04/18 10:25:35;;;;;;;13.32;5.47;;;12.80;75.30;;;;;;5007381;28;20120;-63
2021/04/18 10:28:01;;;;;;;15.52;4.68;;;12.80;75.30;;;;;;5008575;28;20057;-64
2021/04/18 10:30:27;;;;;;;10.88;5.03;;;12.90;75.50;;;;;;5011372;28;20037;-66
2021/04/18 10:32:53;;;;;;;12.45;5.10;;;12.90;75.10;;;;;;5011042;28;20037;-64
2021/04/18 10:35:19;;;;;;;11.38;5.38;;;13.00;74.70;;;;;;5011293;28;20029;-64
2021/04/18 10:37:45;;;;;;;10.45;4.38;;;13.00;73.60;;;;;;5011771;28;20034;-64
2021/04/18 10:40:13;;;;;;;11.15;4.65;;;13.10;73.00;;;;;;5011741;28;20046;-64
2021/04/18 10:42:39;;;;;;;12.68;4.13;;;13.20;73.50;;;;;;5010238;28;20033;-64
2021/04/18 10:45:05;;;;;;;12.73;4.75;;;13.20;73.50;;;;;;5011431;28;20056;-63
2021/04/18 10:47:31;;;;;;;13.15;4.68;;;13.30;73.00;;;;;;5011592;28;20022;-63
2021/04/18 10:49:58;;;;;;;14.63;5.47;;;13.30;73.60;;;;;;5010706;28;20547;-63
2021/04/18 10:52:23;;;;;;;9.00;4.75;;;13.40;73.50;;;;;;5011840;28;20380;-64
2021/04/18 10:54:49;;;;;;;11.48;5.93;;;13.50;73.70;;;;;;5010863;28;20037;-63
2021/04/18 10:57:14;;;;;;;6.60;4.00;;;13.50;73.80;;;;;;5010913;28;20080;-63
2021/04/18 10:59:40;;;;;;;10.70;4.70;;;13.50;74.20;;;;;;5011445;28;20033;-63
2021/04/18 11:02:06;;;;;;;14.15;4.65;;;13.50;74.40;;;;;;5011007;28;20469;-63
2021/04/18 11:04:31;;;;;;;20.63;5.78;;;13.60;74.40;;;;;;5010812;28;20033;-63
2021/04/18 11:06:57;;;;;;;11.10;5.10;;;13.60;74.40;;;;;;5011848;28;20022;-63
2021/04/18 11:09:23;;;;;;;9.52;4.32;;;13.60;73.20;;;;;;5010377;28;20050;-63
2021/04/18 11:11:49;;;;;;;9.40;3.50;;;13.70;73.40;;;;;;5010495;28;20026;-63
2021/04/18 11:14:15;;;;;;;10.65;5.05;;;13.70;73.20;;;;;;5011280;28;20044;-63
2021/04/18 11:16:40;;;;;;;17.83;4.78;;;13.80;73.10;;;;;;5010419;28;20057;-63
2021/04/18 11:19:06;;;;;;;8.02;4.90;;;13.80;72.70;;;;;;5011709;28;20030;-63
2021/04/18 11:21:32;;;;;;;9.25;5.00;;;13.80;71.70;;;;;;5010382;28;20042;-63
2021/04/18 11:23:58;;;;;;;12.52;4.38;;;13.90;71.30;;;;;;5009107;28;20124;-63
2021/04/18 11:26:25;;;;;;;33.50;4.07;;;13.90;71.80;;;;;;5015205;28;20076;-63
2021/04/18 11:28:50;;;;;;;7.13;3.55;;;13.90;72.50;;;;;;5012160;28;20372;-63
2021/04/18 11:31:17;;;;;;;12.10;3.78;;;14.00;72.30;;;;;;5009424;28;20572;-63
2021/04/18 11:33:43;;;;;;;7.57;3.90;;;14.00;71.10;;;;;;5010006;28;20071;-63
2021/04/18 11:36:09;;;;;;;5.30;3.17;;;14.00;69.00;;;;;;5007580;28;20103;-63
2021/04/18 11:38:35;;;;;;;7.57;3.22;;;14.00;66.60;;;;;;5007187;28;20493;-63
2021/04/18 11:41:02;;;;;;;6.88;3.22;;;14.00;65.30;;;;;;4999005;28;20069;-63
2021/04/18 11:43:27;;;;;;;8.73;3.63;;;14.00;67.10;;;;;;5002758;28;20041;-63
2021/04/18 11:45:55;;;;;;;9.48;3.42;;;14.10;68.20;;;;;;5006617;28;20489;-63
2021/04/18 11:48:21;;;;;;;5.22;2.28;;;14.10;68.50;;;;;;5004702;28;20623;-63
2021/04/18 11:50:48;;;;;;;7.53;3.53;;;14.10;67.60;;;;;;5004177;28;20029;-63
2021/04/18 11:53:13;;;;;;;10.95;3.38;;;14.20;67.80;;;;;;5004797;28;20049;-63
2021/04/18 11:55:39;;;;;;;8.20;2.88;;;14.20;67.60;;;;;;5003308;28;20061;-63
2021/04/18 11:58:05;;;;;;;7.18;2.40;;;14.20;68.10;;;;;;5003811;28;20117;-63
2021/04/18 12:00:31;;;;;;;11.07;3.80;;;14.20;68.70;;;;;;4997020;28;20088;-63
2021/04/18 12:02:57;;;;;;;12.00;3.22;;;14.20;69.10;;;;;;5001341;28;20435;-63
2021/04/18 12:05:24;;;;;;;4.53;2.28;;;14.20;65.50;;;;;;5014055;28;20030;-62
2021/04/18 12:07:50;;;;;;;9.90;2.90;;;14.20;67.70;;;;;;4999625;28;20145;-62
2021/04/18 12:10:16;;;;;;;6.60;3.05;;;14.30;67.60;;;;;;4999359;28;20185;-62
2021/04/18 12:12:42;;;;;;;4.72;2.60;;;14.20;68.20;;;;;;4993361;28;20605;-62
2021/04/18 12:15:12;;;;;;;4.68;2.53;;;14.30;69.00;;;;;;4996507;28;20128;-67
2021/04/18 12:17:39;;;;;;;5.80;2.38;;;14.30;70.10;;;;;;4998586;28;20030;-67
2021/04/18 12:20:07;;;;;;;9.20;3.35;;;14.30;70.30;;;;;;4992968;28;20045;-65
2021/04/18 12:22:33;;;;;;;8.85;3.45;;;14.30;69.00;;;;;;4995137;28;20105;-66
2021/04/18 12:24:58;;;;;;;5.50;3.00;;;14.30;68.30;;;;;;4999301;28;20156;-66
2021/04/18 12:27:25;;;;;;;8.27;3.10;;;14.30;68.60;;;;;;4992937;28;20023;-66
2021/04/18 12:29:52;;;;;;;5.80;3.10;;;14.40;67.40;;;;;;4992231;28;20042;-65
2021/04/18 12:32:18;;;;;;;12.00;3.65;;;14.40;69.00;;;;;;5002436;28;20738;-65
2021/04/18 12:34:43;;;;;;;10.32;3.25;;;14.40;66.50;;;;;;4994545;28;20044;-66
2021/04/18 12:37:09;;;;;;;6.70;3.20;;;14.50;67.30;;;;;;5010690;28;20037;-66
2021/04/18 12:39:35;;;;;;;8.32;3.25;;;14.50;68.00;;;;;;5013357;28;20547;-66
2021/04/18 12:42:02;;;;;;;9.82;4.18;;;14.60;68.10;;;;;;5012159;28;20026;-66
2021/04/18 12:44:28;;;;;;;10.75;3.58;;;14.60;67.80;;;;;;5014174;28;20030;-66
2021/04/18 12:46:54;;;;;;;8.52;3.50;;;14.70;66.00;;;;;;4996271;28;20073;-65
2021/04/18 12:49:21;;;;;;;6.40;3.22;;;14.70;65.20;;;;;;5007590;28;20029;-64
2021/04/18 12:51:47;;;;;;;9.20;3.30;;;14.80;64.70;;;;;;5009013;28;20041;-64
2021/04/18 12:54:12;;;;;;;5.68;2.85;;;14.80;64.10;;;;;;5006074;28;20025;-66
2021/04/18 12:56:38;;;;;;;7.25;2.83;;;14.80;63.00;;;;;;5007646;28;20029;-64